sensor_id;sensor_type;location;lat;lon;timestamp;pressure;altitude;pressure_sealevel;temperature;humidity
51227;BME280;42714;48.260;10.980;2023-05-24T00:05:10;972.0;;;14.8;100.0
51227;BME280;42714;48.260;10.980;2023-05-24T00:15:09;971.9;;;14.8;100.0
51227;BME280;42714;48.260;10.980;2023-05-24T00:20:10;971.9;;;14.8;100.0
51227;BME280;42714;48.260;10.980;2023-05-24T00:25:11;971.9;;;14.8;100.0
51227;BME280;42714;48.260;10.980;2023-05-24T00:30:12;971.8;;;14.8;100.0
51227;BME280;42714;48.260;10.980;2023-05-24T00:35:13;971.8;;;14.8;100.0
51227;BME280;42714;48.260;10.980;2023-05-24T00:40:14;971.8;;;14.8;100.0
51227;BME280;42714;48.260;10.980;2023-05-24T00:45:15;971.7;;;14.8;100.0
51227;BME280;42714;48.260;10.980;2023-05-24T00:50:16;971.7;;;14.8;100.0
51227;BME280;42714;48.260;10.980;2023-05-24T00:55:17;971.7;;;14.8;100.0
51227;BME280;42714;48.260;10.980;2023-05-24T01:00:18;971.7;;;14.7;100.0
51227;BME280;42714;48.260;10.980;2023-05-24T01:05:18;971.7;;;14.7;100.0
51227;BME280;42714;48.260;10.980;2023-05-24T01:10:24;971.7;;;14.7;100.0
51227;BME280;42714;48.260;10.980;2023-05-24T01:15:23;971.7;;;14.8;100.0
51227;BME280;42714;48.260;10.980;2023-05-24T01:20:21;971.6;;;14.7;100.0
51227;BME280;42714;48.260;10.980;2023-05-24T01:25:47;971.7;;;14.7;100.0
51227;BME280;42714;48.260;10.980;2023-05-24T01:30:27;971.7;;;14.7;100.0
51227;BME280;42714;48.260;10.980;2023-05-24T01:35:24;971.8;;;14.7;100.0
51227;BME280;42714;48.260;10.980;2023-05-24T01:40:25;971.8;;;14.7;100.0
51227;BME280;42714;48.260;10.980;2023-05-24T01:45:28;971.8;;;14.6;100.0
51227;BME280;42714;48.260;10.980;2023-05-24T01:50:30;971.8;;;14.6;100.0
51227;BME280;42714;48.260;10.980;2023-05-24T01:55:28;971.8;;;14.6;100.0
51227;BME280;42714;48.260;10.980;2023-05-24T02:00:30;971.8;;;14.5;100.0
51227;BME280;42714;48.260;10.980;2023-05-24T02:05:31;971.8;;;14.5;100.0
51227;BME280;42714;48.260;10.980;2023-05-24T02:10:31;971.8;;;14.5;100.0
51227;BME280;42714;48.260;10.980;2023-05-24T02:15:33;971.8;;;14.4;100.0
51227;BME280;42714;48.260;10.980;2023-05-24T02:20:33;971.7;;;14.3;100.0
51227;BME280;42714;48.260;10.980;2023-05-24T02:25:34;971.7;;;14.3;100.0
51227;BME280;42714;48.260;10.980;2023-05-24T02:30:35;971.7;;;14.1;100.0
51227;BME280;42714;48.260;10.980;2023-05-24T02:35:36;971.8;;;14.1;100.0
51227;BME280;42714;48.260;10.980;2023-05-24T02:40:37;971.7;;;14.0;100.0
51227;BME280;42714;48.260;10.980;2023-05-24T02:45:39;971.8;;;13.9;100.0
51227;BME280;42714;48.260;10.980;2023-05-24T02:50:39;971.7;;;13.9;100.0
51227;BME280;42714;48.260;10.980;2023-05-24T02:55:40;971.7;;;13.8;100.0
51227;BME280;42714;48.260;10.980;2023-05-24T03:00:41;971.6;;;13.7;100.0
51227;BME280;42714;48.260;10.980;2023-05-24T03:05:42;971.6;;;13.7;100.0
51227;BME280;42714;48.260;10.980;2023-05-24T03:10:43;971.6;;;13.6;100.0
51227;BME280;42714;48.260;10.980;2023-05-24T03:15:44;971.6;;;13.6;100.0
51227;BME280;42714;48.260;10.980;2023-05-24T03:20:46;971.6;;;13.6;100.0
51227;BME280;42714;48.260;10.980;2023-05-24T03:25:47;971.6;;;13.5;100.0
51227;BME280;42714;48.260;10.980;2023-05-24T03:30:48;971.6;;;13.4;100.0
51227;BME280;42714;48.260;10.980;2023-05-24T03:35:49;971.6;;;13.3;100.0
51227;BME280;42714;48.260;10.980;2023-05-24T03:40:50;971.6;;;13.4;100.0
51227;BME280;42714;48.260;10.980;2023-05-24T03:45:51;971.7;;;13.3;100.0
51227;BME280;42714;48.260;10.980;2023-05-24T03:50:52;971.7;;;13.2;100.0
51227;BME280;42714;48.260;10.980;2023-05-24T03:55:53;971.8;;;13.0;100.0
51227;BME280;42714;48.260;10.980;2023-05-24T04:00:54;971.9;;;12.9;100.0
51227;BME280;42714;48.260;10.980;2023-05-24T04:05:55;971.9;;;12.9;100.0
51227;BME280;42714;48.260;10.980;2023-05-24T04:10:56;971.9;;;12.9;100.0
51227;BME280;42714;48.260;10.980;2023-05-24T04:15:57;971.9;;;12.8;100.0
51227;BME280;42714;48.260;10.980;2023-05-24T04:20:58;972.0;;;12.8;100.0
51227;BME280;42714;48.260;10.980;2023-05-24T04:25:59;972.0;;;12.8;100.0
51227;BME280;42714;48.260;10.980;2023-05-24T04:31:00;972.1;;;12.9;100.0
51227;BME280;42714;48.260;10.980;2023-05-24T04:36:01;972.1;;;12.9;100.0
51227;BME280;42714;48.260;10.980;2023-05-24T04:41:02;972.1;;;13.0;100.0
51227;BME280;42714;48.260;10.980;2023-05-24T04:46:03;972.1;;;13.1;100.0
51227;BME280;42714;48.260;10.980;2023-05-24T04:51:04;972.1;;;13.1;100.0
51227;BME280;42714;48.260;10.980;2023-05-24T04:56:05;972.0;;;13.2;100.0
51227;BME280;42714;48.260;10.980;2023-05-24T05:01:06;972.0;;;13.3;100.0
51227;BME280;42714;48.260;10.980;2023-05-24T05:06:07;972.0;;;13.3;100.0
51227;BME280;42714;48.260;10.980;2023-05-24T05:11:08;972.0;;;13.4;100.0
51227;BME280;42714;48.260;10.980;2023-05-24T05:16:09;972.1;;;13.7;100.0
51227;BME280;42714;48.260;10.980;2023-05-24T05:21:10;972.1;;;13.9;100.0
51227;BME280;42714;48.260;10.980;2023-05-24T05:26:11;972.1;;;14.1;100.0
51227;BME280;42714;48.260;10.980;2023-05-24T05:31:12;972.0;;;14.1;100.0
51227;BME280;42714;48.260;10.980;2023-05-24T05:36:13;971.9;;;14.1;100.0
51227;BME280;42714;48.260;10.980;2023-05-24T05:41:14;971.9;;;14.2;100.0
51227;BME280;42714;48.260;10.980;2023-05-24T05:46:15;971.8;;;14.6;100.0
51227;BME280;42714;48.260;10.980;2023-05-24T05:51:16;971.8;;;14.9;100.0
51227;BME280;42714;48.260;10.980;2023-05-24T05:56:17;971.8;;;15.2;100.0
51227;BME280;42714;48.260;10.980;2023-05-24T06:01:18;971.8;;;15.2;100.0
51227;BME280;42714;48.260;10.980;2023-05-24T06:06:19;971.9;;;15.2;100.0
51227;BME280;42714;48.260;10.980;2023-05-24T06:11:20;971.8;;;15.3;100.0
51227;BME280;42714;48.260;10.980;2023-05-24T06:16:21;971.8;;;15.5;100.0
51227;BME280;42714;48.260;10.980;2023-05-24T06:21:22;971.8;;;15.8;100.0
51227;BME280;42714;48.260;10.980;2023-05-24T06:26:23;971.8;;;16.1;100.0
51227;BME280;42714;48.260;10.980;2023-05-24T06:31:24;971.8;;;16.8;100.0
51227;BME280;42714;48.260;10.980;2023-05-24T06:36:25;971.9;;;17.1;100.0
51227;BME280;42714;48.260;10.980;2023-05-24T06:41:26;971.9;;;17.1;100.0
51227;BME280;42714;48.260;10.980;2023-05-24T06:46:27;972.0;;;17.2;100.0
51227;BME280;42714;48.260;10.980;2023-05-24T06:51:28;972.0;;;17.1;99.4
51227;BME280;42714;48.260;10.980;2023-05-24T06:56:29;972.1;;;17.2;100.0
51227;BME280;42714;48.260;10.980;2023-05-24T07:01:30;972.2;;;17.4;95.8
51227;BME280;42714;48.260;10.980;2023-05-24T07:06:31;972.2;;;17.2;95.0
51227;BME280;42714;48.260;10.980;2023-05-24T07:11:32;972.2;;;17.2;98.8
51227;BME280;42714;48.260;10.980;2023-05-24T07:16:33;972.2;;;17.4;92.9
51227;BME280;42714;48.260;10.980;2023-05-24T07:21:34;972.3;;;17.7;92.0
51227;BME280;42714;48.260;10.980;2023-05-24T07:26:35;972.2;;;17.9;88.4
51227;BME280;42714;48.260;10.980;2023-05-24T07:31:36;972.2;;;18.1;89.5
51227;BME280;42714;48.260;10.980;2023-05-24T07:36:37;972.2;;;18.5;81.5
51227;BME280;42714;48.260;10.980;2023-05-24T07:41:38;972.2;;;19.0;75.9
51227;BME280;42714;48.260;10.980;2023-05-24T07:46:39;972.2;;;19.4;68.9
51227;BME280;42714;48.260;10.980;2023-05-24T07:51:40;972.2;;;19.7;67.2
51227;BME280;42714;48.260;10.980;2023-05-24T07:56:41;972.2;;;20.1;63.0
51227;BME280;42714;48.260;10.980;2023-05-24T08:01:42;972.2;;;20.2;60.4
51227;BME280;42714;48.260;10.980;2023-05-24T08:06:43;972.3;;;19.9;60.6
51227;BME280;42714;48.260;10.980;2023-05-24T08:11:44;972.3;;;19.9;59.9
51227;BME280;42714;48.260;10.980;2023-05-24T08:16:45;972.3;;;19.6;59.8
51227;BME280;42714;48.260;10.980;2023-05-24T08:21:46;972.3;;;19.6;63.5
51227;BME280;42714;48.260;10.980;2023-05-24T08:26:47;972.3;;;19.6;65.1
51227;BME280;42714;48.260;10.980;2023-05-24T08:31:48;972.3;;;19.9;65.7
51227;BME280;42714;48.260;10.980;2023-05-24T08:36:49;972.4;;;19.8;64.5
51227;BME280;42714;48.260;10.980;2023-05-24T08:41:50;972.4;;;19.6;65.3
51227;BME280;42714;48.260;10.980;2023-05-24T08:46:51;972.4;;;19.8;63.4
51227;BME280;42714;48.260;10.980;2023-05-24T08:51:52;972.4;;;19.6;61.3
51227;BME280;42714;48.260;10.980;2023-05-24T08:56:53;972.2;;;19.3;60.6
51227;BME280;42714;48.260;10.980;2023-05-24T09:01:54;972.4;;;19.0;61.3
51227;BME280;42714;48.260;10.980;2023-05-24T09:06:55;972.5;;;19.6;57.3
51227;BME280;42714;48.260;10.980;2023-05-24T09:11:58;972.4;;;20.0;54.1
51227;BME280;42714;48.260;10.980;2023-05-24T09:16:57;972.5;;;20.0;48.5
51227;BME280;42714;48.260;10.980;2023-05-24T09:21:58;972.5;;;21.2;47.2
51227;BME280;42714;48.260;10.980;2023-05-24T09:27:03;972.5;;;22.7;43.6
51227;BME280;42714;48.260;10.980;2023-05-24T09:32:00;972.5;;;22.6;41.8
51227;BME280;42714;48.260;10.980;2023-05-24T09:37:01;972.6;;;22.4;43.7
51227;BME280;42714;48.260;10.980;2023-05-24T09:42:02;972.7;;;21.7;44.5
51227;BME280;42714;48.260;10.980;2023-05-24T09:47:03;972.7;;;21.2;48.0
51227;BME280;42714;48.260;10.980;2023-05-24T09:52:04;972.7;;;21.0;47.1
51227;BME280;42714;48.260;10.980;2023-05-24T09:57:05;972.6;;;21.1;47.7
51227;BME280;42714;48.260;10.980;2023-05-24T10:02:06;972.5;;;23.1;43.7
51227;BME280;42714;48.260;10.980;2023-05-24T10:07:07;972.4;;;23.1;41.5
51227;BME280;42714;48.260;10.980;2023-05-24T10:12:08;972.5;;;23.1;39.9
51227;BME280;42714;48.260;10.980;2023-05-24T10:17:09;972.6;;;22.9;41.2
51227;BME280;42714;48.260;10.980;2023-05-24T10:22:10;972.5;;;22.8;41.6
51227;BME280;42714;48.260;10.980;2023-05-24T10:27:13;972.6;;;23.2;39.4
51227;BME280;42714;48.260;10.980;2023-05-24T10:32:12;972.5;;;22.9;39.8
51227;BME280;42714;48.260;10.980;2023-05-24T10:37:13;972.6;;;22.1;40.4
51227;BME280;42714;48.260;10.980;2023-05-24T10:42:14;972.6;;;22.7;40.7
51227;BME280;42714;48.260;10.980;2023-05-24T10:47:15;972.6;;;22.5;40.2
51227;BME280;42714;48.260;10.980;2023-05-24T10:52:16;972.6;;;22.0;41.7
51227;BME280;42714;48.260;10.980;2023-05-24T10:57:21;972.7;;;21.2;43.2
51227;BME280;42714;48.260;10.980;2023-05-24T11:02:18;972.7;;;20.5;45.4
51227;BME280;42714;48.260;10.980;2023-05-24T11:07:19;972.7;;;19.6;48.2
51227;BME280;42714;48.260;10.980;2023-05-24T11:12:20;972.7;;;18.9;50.4
51227;BME280;42714;48.260;10.980;2023-05-24T11:17:21;972.7;;;18.6;53.5
51227;BME280;42714;48.260;10.980;2023-05-24T11:22:23;972.7;;;18.6;51.8
51227;BME280;42714;48.260;10.980;2023-05-24T11:27:23;972.7;;;18.5;51.9
51227;BME280;42714;48.260;10.980;2023-05-24T11:32:24;972.6;;;18.3;53.2
51227;BME280;42714;48.260;10.980;2023-05-24T11:37:25;972.6;;;18.4;54.5
51227;BME280;42714;48.260;10.980;2023-05-24T11:42:26;972.6;;;18.4;56.6
51227;BME280;42714;48.260;10.980;2023-05-24T11:47:27;972.6;;;18.6;53.8
51227;BME280;42714;48.260;10.980;2023-05-24T11:52:28;972.6;;;18.8;53.6
51227;BME280;42714;48.260;10.980;2023-05-24T11:57:32;972.6;;;19.0;51.2
51227;BME280;42714;48.260;10.980;2023-05-24T12:02:30;972.5;;;19.5;49.5
51227;BME280;42714;48.260;10.980;2023-05-24T12:07:31;972.5;;;19.9;48.4
51227;BME280;42714;48.260;10.980;2023-05-24T12:12:32;972.4;;;21.4;44.7
51227;BME280;42714;48.260;10.980;2023-05-24T12:17:33;972.3;;;22.7;40.3
51227;BME280;42714;48.260;10.980;2023-05-24T12:22:34;972.3;;;23.9;37.2
51227;BME280;42714;48.260;10.980;2023-05-24T12:27:35;972.3;;;23.6;37.5
51227;BME280;42714;48.260;10.980;2023-05-24T12:32:36;972.2;;;22.5;38.5
51227;BME280;42714;48.260;10.980;2023-05-24T12:37:37;972.3;;;21.8;37.9
51227;BME280;42714;48.260;10.980;2023-05-24T12:42:38;972.3;;;21.6;41.1
51227;BME280;42714;48.260;10.980;2023-05-24T12:47:39;972.3;;;22.1;41.1
51227;BME280;42714;48.260;10.980;2023-05-24T12:52:40;972.2;;;23.1;39.4
51227;BME280;42714;48.260;10.980;2023-05-24T12:57:41;972.2;;;24.9;36.2
51227;BME280;42714;48.260;10.980;2023-05-24T13:02:42;972.1;;;26.9;32.6
51227;BME280;42714;48.260;10.980;2023-05-24T13:07:43;972.2;;;28.3;29.2
51227;BME280;42714;48.260;10.980;2023-05-24T13:12:45;972.1;;;27.5;29.1
51227;BME280;42714;48.260;10.980;2023-05-24T13:17:45;972.2;;;25.9;30.3
51227;BME280;42714;48.260;10.980;2023-05-24T13:22:46;972.1;;;26.6;30.8
51227;BME280;42714;48.260;10.980;2023-05-24T13:27:47;972.1;;;28.5;27.3
51227;BME280;42714;48.260;10.980;2023-05-24T13:32:48;972.1;;;27.9;26.7
51227;BME280;42714;48.260;10.980;2023-05-24T13:37:49;972.1;;;28.0;27.2
51227;BME280;42714;48.260;10.980;2023-05-24T13:42:51;972.0;;;28.9;25.3
51227;BME280;42714;48.260;10.980;2023-05-24T13:47:51;972.0;;;29.9;24.8
51227;BME280;42714;48.260;10.980;2023-05-24T13:52:52;972.0;;;30.2;22.5
51227;BME280;42714;48.260;10.980;2023-05-24T13:57:54;972.1;;;28.3;25.5
51227;BME280;42714;48.260;10.980;2023-05-24T14:02:54;972.0;;;26.9;28.5
51227;BME280;42714;48.260;10.980;2023-05-24T14:07:56;972.1;;;25.3;28.7
51227;BME280;42714;48.260;10.980;2023-05-24T14:12:56;972.1;;;23.2;31.1
51227;BME280;42714;48.260;10.980;2023-05-24T14:17:57;972.1;;;21.5;34.5
51227;BME280;42714;48.260;10.980;2023-05-24T14:22:58;972.1;;;20.7;37.1
51227;BME280;42714;48.260;10.980;2023-05-24T14:27:59;972.0;;;19.8;38.5
51227;BME280;42714;48.260;10.980;2023-05-24T14:33:00;972.0;;;19.6;40.0
51227;BME280;42714;48.260;10.980;2023-05-24T14:38:01;972.0;;;20.1;40.6
51227;BME280;42714;48.260;10.980;2023-05-24T14:43:03;972.0;;;20.0;40.9
51227;BME280;42714;48.260;10.980;2023-05-24T14:48:03;972.0;;;20.0;40.7
51227;BME280;42714;48.260;10.980;2023-05-24T14:53:04;972.0;;;20.1;41.7
51227;BME280;42714;48.260;10.980;2023-05-24T14:58:05;971.9;;;20.5;39.8
51227;BME280;42714;48.260;10.980;2023-05-24T15:03:06;972.0;;;20.0;40.3
51227;BME280;42714;48.260;10.980;2023-05-24T15:08:08;972.0;;;19.9;41.7
51227;BME280;42714;48.260;10.980;2023-05-24T15:13:09;971.9;;;19.9;44.9
51227;BME280;42714;48.260;10.980;2023-05-24T15:18:09;971.9;;;19.7;48.7
51227;BME280;42714;48.260;10.980;2023-05-24T15:23:10;971.9;;;19.7;50.1
51227;BME280;42714;48.260;10.980;2023-05-24T15:28:11;971.9;;;19.4;51.1
51227;BME280;42714;48.260;10.980;2023-05-24T15:33:12;971.9;;;19.2;52.4
51227;BME280;42714;48.260;10.980;2023-05-24T15:38:13;971.9;;;19.0;55.9
51227;BME280;42714;48.260;10.980;2023-05-24T15:43:16;971.9;;;19.1;58.6
51227;BME280;42714;48.260;10.980;2023-05-24T15:48:15;971.9;;;19.1;60.8
51227;BME280;42714;48.260;10.980;2023-05-24T15:53:16;971.9;;;19.3;59.6
51227;BME280;42714;48.260;10.980;2023-05-24T15:58:17;972.0;;;19.0;62.6
51227;BME280;42714;48.260;10.980;2023-05-24T16:03:18;972.0;;;19.0;61.6
51227;BME280;42714;48.260;10.980;2023-05-24T16:08:19;972.0;;;18.3;65.1
51227;BME280;42714;48.260;10.980;2023-05-24T16:13:21;972.0;;;17.9;69.0
51227;BME280;42714;48.260;10.980;2023-05-24T16:18:21;972.0;;;17.3;72.5
51227;BME280;42714;48.260;10.980;2023-05-24T16:23:22;972.1;;;17.0;74.3
51227;BME280;42714;48.260;10.980;2023-05-24T16:28:23;971.9;;;16.8;74.0
51227;BME280;42714;48.260;10.980;2023-05-24T16:33:24;971.9;;;16.5;79.1
51227;BME280;42714;48.260;10.980;2023-05-24T16:38:25;972.0;;;16.5;78.8
51227;BME280;42714;48.260;10.980;2023-05-24T16:43:26;972.0;;;16.5;78.1
51227;BME280;42714;48.260;10.980;2023-05-24T16:48:27;972.0;;;16.0;81.8
51227;BME280;42714;48.260;10.980;2023-05-24T16:53:28;972.0;;;15.8;83.9
51227;BME280;42714;48.260;10.980;2023-05-24T16:58:29;972.1;;;15.4;90.6
51227;BME280;42714;48.260;10.980;2023-05-24T17:03:30;972.2;;;15.1;95.7
51227;BME280;42714;48.260;10.980;2023-05-24T17:08:32;972.2;;;14.8;98.4
51227;BME280;42714;48.260;10.980;2023-05-24T17:13:32;972.3;;;14.7;100.0
51227;BME280;42714;48.260;10.980;2023-05-24T17:18:33;972.3;;;14.7;100.0
51227;BME280;42714;48.260;10.980;2023-05-24T17:23:34;972.3;;;14.8;100.0
51227;BME280;42714;48.260;10.980;2023-05-24T17:28:35;972.3;;;14.8;100.0
51227;BME280;42714;48.260;10.980;2023-05-24T17:33:36;972.4;;;14.7;100.0
51227;BME280;42714;48.260;10.980;2023-05-24T17:38:37;972.4;;;14.7;100.0
51227;BME280;42714;48.260;10.980;2023-05-24T17:43:38;972.4;;;14.8;100.0
51227;BME280;42714;48.260;10.980;2023-05-24T17:48:39;972.4;;;14.9;100.0
51227;BME280;42714;48.260;10.980;2023-05-24T17:53:40;972.5;;;14.7;100.0
51227;BME280;42714;48.260;10.980;2023-05-24T17:58:41;972.6;;;14.6;100.0
51227;BME280;42714;48.260;10.980;2023-05-24T18:03:42;972.6;;;14.7;99.8
51227;BME280;42714;48.260;10.980;2023-05-24T18:08:43;972.6;;;14.4;100.0
51227;BME280;42714;48.260;10.980;2023-05-24T18:13:44;972.7;;;14.3;100.0
51227;BME280;42714;48.260;10.980;2023-05-24T18:18:45;972.7;;;14.1;100.0
51227;BME280;42714;48.260;10.980;2023-05-24T18:23:46;972.8;;;14.0;100.0
51227;BME280;42714;48.260;10.980;2023-05-24T18:28:47;972.8;;;14.0;100.0
51227;BME280;42714;48.260;10.980;2023-05-24T18:33:49;972.8;;;14.1;100.0
51227;BME280;42714;48.260;10.980;2023-05-24T18:38:50;972.8;;;14.1;100.0
51227;BME280;42714;48.260;10.980;2023-05-24T18:43:50;972.8;;;14.0;100.0
51227;BME280;42714;48.260;10.980;2023-05-24T18:48:51;972.8;;;13.8;100.0
51227;BME280;42714;48.260;10.980;2023-05-24T18:53:52;972.9;;;13.7;100.0
51227;BME280;42714;48.260;10.980;2023-05-24T18:58:53;972.9;;;13.5;100.0
51227;BME280;42714;48.260;10.980;2023-05-24T19:03:54;972.9;;;13.4;100.0
51227;BME280;42714;48.260;10.980;2023-05-24T19:08:55;972.9;;;13.3;100.0
51227;BME280;42714;48.260;10.980;2023-05-24T19:13:56;972.9;;;13.3;100.0
51227;BME280;42714;48.260;10.980;2023-05-24T19:18:57;973.0;;;13.2;100.0
51227;BME280;42714;48.260;10.980;2023-05-24T19:23:58;973.0;;;13.1;100.0
51227;BME280;42714;48.260;10.980;2023-05-24T19:28:59;973.0;;;13.1;100.0
51227;BME280;42714;48.260;10.980;2023-05-24T19:34:00;973.0;;;13.1;100.0
51227;BME280;42714;48.260;10.980;2023-05-24T19:39:02;973.1;;;13.0;100.0
51227;BME280;42714;48.260;10.980;2023-05-24T19:44:05;973.1;;;12.9;100.0
51227;BME280;42714;48.260;10.980;2023-05-24T19:49:03;973.2;;;12.9;100.0
51227;BME280;42714;48.260;10.980;2023-05-24T19:54:04;973.2;;;12.9;100.0
51227;BME280;42714;48.260;10.980;2023-05-24T19:59:09;973.2;;;12.8;100.0
51227;BME280;42714;48.260;10.980;2023-05-24T20:04:07;973.2;;;12.7;100.0
51227;BME280;42714;48.260;10.980;2023-05-24T20:09:08;973.2;;;12.7;100.0
51227;BME280;42714;48.260;10.980;2023-05-24T20:14:09;973.3;;;12.6;100.0
51227;BME280;42714;48.260;10.980;2023-05-24T20:19:10;973.3;;;12.7;100.0
51227;BME280;42714;48.260;10.980;2023-05-24T20:24:11;973.3;;;12.8;100.0
51227;BME280;42714;48.260;10.980;2023-05-24T20:29:12;973.2;;;12.9;100.0
51227;BME280;42714;48.260;10.980;2023-05-24T20:34:13;973.1;;;12.9;100.0
51227;BME280;42714;48.260;10.980;2023-05-24T20:39:14;973.1;;;12.9;100.0
51227;BME280;42714;48.260;10.980;2023-05-24T20:44:15;973.1;;;12.8;100.0
51227;BME280;42714;48.260;10.980;2023-05-24T20:49:16;973.1;;;12.9;100.0
51227;BME280;42714;48.260;10.980;2023-05-24T20:54:17;973.1;;;12.8;100.0
51227;BME280;42714;48.260;10.980;2023-05-24T20:59:18;973.1;;;12.8;100.0
51227;BME280;42714;48.260;10.980;2023-05-24T21:04:19;973.1;;;12.8;100.0
51227;BME280;42714;48.260;10.980;2023-05-24T21:09:20;973.1;;;12.8;100.0
51227;BME280;42714;48.260;10.980;2023-05-24T21:14:21;973.1;;;12.8;100.0
51227;BME280;42714;48.260;10.980;2023-05-24T21:19:22;973.1;;;12.8;100.0
51227;BME280;42714;48.260;10.980;2023-05-24T21:24:23;973.1;;;12.8;100.0
51227;BME280;42714;48.260;10.980;2023-05-24T21:29:24;973.2;;;12.8;100.0
51227;BME280;42714;48.260;10.980;2023-05-24T21:34:25;973.2;;;12.8;100.0
51227;BME280;42714;48.260;10.980;2023-05-24T21:39:26;973.3;;;12.9;100.0
51227;BME280;42714;48.260;10.980;2023-05-24T21:44:30;973.2;;;12.9;100.0
51227;BME280;42714;48.260;10.980;2023-05-24T21:49:28;973.2;;;12.8;100.0
51227;BME280;42714;48.260;10.980;2023-05-24T21:54:29;973.3;;;12.6;100.0
51227;BME280;42714;48.260;10.980;2023-05-24T21:59:30;973.3;;;12.6;100.0
51227;BME280;42714;48.260;10.980;2023-05-24T22:04:31;973.3;;;12.5;100.0
51227;BME280;42714;48.260;10.980;2023-05-24T22:09:32;973.3;;;12.4;100.0
51227;BME280;42714;48.260;10.980;2023-05-24T22:14:33;973.3;;;12.3;100.0
51227;BME280;42714;48.260;10.980;2023-05-24T22:19:34;973.3;;;12.2;100.0
51227;BME280;42714;48.260;10.980;2023-05-24T22:24:35;973.3;;;12.2;100.0
51227;BME280;42714;48.260;10.980;2023-05-24T22:29:36;973.3;;;12.2;100.0
51227;BME280;42714;48.260;10.980;2023-05-24T22:34:37;973.4;;;12.2;100.0
51227;BME280;42714;48.260;10.980;2023-05-24T22:39:38;973.4;;;12.1;100.0
51227;BME280;42714;48.260;10.980;2023-05-24T22:44:39;973.4;;;12.2;100.0
51227;BME280;42714;48.260;10.980;2023-05-24T22:49:40;973.3;;;12.1;100.0
51227;BME280;42714;48.260;10.980;2023-05-24T22:54:41;973.4;;;12.2;100.0
51227;BME280;42714;48.260;10.980;2023-05-24T22:59:42;973.3;;;12.1;100.0
51227;BME280;42714;48.260;10.980;2023-05-24T23:04:43;973.3;;;12.1;100.0
51227;BME280;42714;48.260;10.980;2023-05-24T23:09:44;973.3;;;12.1;100.0
51227;BME280;42714;48.260;10.980;2023-05-24T23:14:45;973.2;;;12.0;100.0
51227;BME280;42714;48.260;10.980;2023-05-24T23:19:46;973.1;;;12.0;100.0
51227;BME280;42714;48.260;10.980;2023-05-24T23:24:47;973.1;;;12.1;100.0
51227;BME280;42714;48.260;10.980;2023-05-24T23:29:48;973.0;;;12.0;100.0
51227;BME280;42714;48.260;10.980;2023-05-24T23:34:49;972.9;;;11.9;100.0
51227;BME280;42714;48.260;10.980;2023-05-24T23:39:50;973.0;;;11.9;100.0
51227;BME280;42714;48.260;10.980;2023-05-24T23:44:51;973.0;;;11.9;100.0
51227;BME280;42714;48.260;10.980;2023-05-24T23:49:52;973.1;;;11.9;100.0
51227;BME280;42714;48.260;10.980;2023-05-24T23:54:53;973.1;;;11.8;100.0
51227;BME280;42714;48.260;10.980;2023-05-24T23:59:54;973.1;;;11.8;100.0
